createdAt,value
2023-04-15T00:01:19.106Z,4.93
2023-04-15T00:03:46.330Z,4.28
2023-04-15T00:06:13.691Z,4.43
2023-04-15T00:08:40.436Z,4.22
2023-04-15T00:11:07.106Z,4.35
2023-04-15T00:13:36.538Z,4.55
2023-04-15T00:16:03.238Z,4.18
2023-04-15T00:18:30.369Z,3.42
2023-04-15T00:20:57.079Z,4.63
2023-04-15T00:23:23.769Z,3.92
2023-04-15T00:25:51.066Z,3.97
2023-04-15T00:28:18.183Z,3.58
2023-04-15T00:30:45.995Z,4.53
2023-04-15T00:33:13.859Z,4.40
2023-04-15T00:35:40.808Z,4.40
2023-04-15T00:38:10.640Z,5.30
2023-04-15T00:40:38.017Z,4.60
2023-04-15T00:43:05.658Z,3.90
2023-04-15T00:45:33.388Z,4.47
2023-04-15T00:48:00.241Z,4.50
2023-04-15T00:50:27.756Z,4.15
2023-04-15T00:52:54.446Z,4.30
2023-04-15T00:55:21.160Z,4.40
2023-04-15T00:57:48.634Z,5.00
2023-04-15T01:00:16.572Z,4.38
2023-04-15T01:02:43.609Z,4.22
2023-04-15T01:05:10.484Z,4.07
2023-04-15T01:07:37.449Z,4.03
2023-04-15T01:10:04.997Z,4.25
2023-04-15T01:12:33.197Z,4.50
2023-04-15T01:15:00.387Z,4.78
2023-04-15T01:17:28.191Z,4.13
2023-04-15T01:19:57.902Z,4.88
2023-04-15T01:22:26.696Z,4.40
2023-04-15T01:25:08.254Z,4.35
2023-04-15T01:27:36.571Z,4.22
2023-04-15T01:30:05.313Z,5.47
2023-04-15T01:32:32.854Z,4.45
2023-04-15T01:34:59.666Z,4.55
2023-04-15T01:37:26.361Z,4.32
2023-04-15T01:39:53.113Z,4.28
2023-04-15T01:42:21.813Z,4.28
2023-04-15T01:44:49.104Z,4.50
2023-04-15T01:47:15.815Z,4.35
2023-04-15T01:49:42.613Z,4.75
2023-04-15T01:52:09.419Z,4.13
2023-04-15T01:54:36.063Z,3.50
2023-04-15T01:57:03.552Z,3.80
2023-04-15T01:59:31.928Z,4.30
2023-04-15T02:01:59.715Z,4.10
2023-04-15T02:04:27.940Z,4.43
2023-04-15T02:06:54.629Z,4.53
2023-04-15T02:09:21.825Z,4.82
2023-04-15T02:11:48.702Z,4.63
2023-04-15T02:14:15.398Z,3.78
2023-04-15T02:16:42.067Z,4.32
2023-04-15T02:19:09.601Z,4.15
2023-04-15T02:21:37.912Z,5.28
2023-04-15T02:24:04.748Z,5.00
2023-04-15T02:26:34.137Z,4.82
2023-04-15T02:29:01.129Z,5.38
2023-04-15T02:31:28.269Z,5.25
2023-04-15T02:33:55.101Z,6.07
2023-04-15T02:36:22.016Z,5.20
2023-04-15T02:38:48.758Z,7.07
2023-04-15T02:41:16.512Z,5.47
2023-04-15T02:43:45.752Z,6.70
2023-04-15T02:46:14.757Z,5.88
2023-04-15T02:48:41.876Z,5.95
2023-04-15T02:51:16.689Z,6.28
2023-04-15T02:53:43.482Z,5.65
2023-04-15T02:56:11.208Z,5.57
2023-04-15T02:58:38.183Z,6.05
2023-04-15T03:01:05.116Z,5.85
2023-04-15T03:03:31.996Z,6.95
2023-04-15T03:05:58.808Z,7.10
2023-04-15T03:08:25.710Z,5.70
2023-04-15T03:10:53.093Z,5.10
2023-04-15T03:13:21.442Z,6.53
2023-04-15T03:15:48.685Z,5.90
2023-04-15T03:18:15.526Z,6.15
2023-04-15T03:20:42.450Z,7.05
2023-04-15T03:23:09.289Z,7.28
2023-04-15T03:25:37.410Z,7.05
2023-04-15T03:28:06.104Z,6.85
2023-04-15T03:30:33.640Z,7.07
2023-04-15T03:33:00.492Z,6.95
2023-04-15T03:35:27.518Z,7.68
2023-04-15T03:37:54.184Z,6.32
2023-04-15T03:40:21.630Z,7.00
2023-04-15T03:42:48.439Z,7.38
2023-04-15T03:45:15.137Z,8.07
2023-04-15T03:47:41.826Z,7.85
2023-04-15T03:50:09.107Z,7.60
2023-04-15T03:52:35.835Z,8.32
2023-04-15T03:55:02.639Z,7.68
2023-04-15T03:57:29.601Z,7.72
2023-04-15T03:59:56.262Z,7.72
2023-04-15T04:02:23.444Z,8.32
2023-04-15T04:04:50.814Z,7.43
2023-04-15T04:07:18.193Z,8.00
2023-04-15T04:09:47.008Z,9.60
2023-04-15T04:12:14.018Z,8.48
2023-04-15T04:14:40.755Z,9.05
2023-04-15T04:17:07.692Z,10.13
2023-04-15T04:19:34.593Z,9.85
2023-04-15T04:22:02.220Z,9.68
2023-04-15T04:24:28.995Z,9.23
2023-04-15T04:26:57.094Z,9.75
2023-04-15T04:29:23.852Z,9.77
2023-04-15T04:31:50.983Z,9.85
2023-04-15T04:34:17.743Z,9.63
2023-04-15T04:36:44.510Z,8.98
2023-04-15T04:39:11.226Z,9.32
2023-04-15T04:41:37.907Z,9.43
2023-04-15T04:44:04.729Z,9.75
2023-04-15T04:46:31.563Z,10.07
2023-04-15T04:48:58.211Z,9.43
2023-04-15T04:51:25.183Z,9.30
2023-04-15T04:53:51.859Z,9.98
2023-04-15T04:56:18.554Z,10.32
2023-04-15T04:58:45.215Z,10.23
2023-04-15T05:01:12.421Z,9.80
2023-04-15T05:03:39.235Z,9.30
2023-04-15T05:06:08.681Z,10.80
2023-04-15T05:08:35.367Z,10.15
2023-04-15T05:11:03.325Z,10.90
2023-04-15T05:13:30.236Z,9.02
2023-04-15T05:15:57.035Z,10.48
2023-04-15T05:18:23.921Z,9.80
2023-04-15T05:20:50.718Z,10.80
2023-04-15T05:23:17.693Z,10.35
2023-04-15T05:25:44.415Z,9.90
2023-04-15T05:28:11.299Z,10.27
2023-04-15T05:30:38.105Z,10.35
2023-04-15T05:33:04.926Z,9.07
2023-04-15T05:35:31.642Z,10.23
2023-04-15T05:37:58.367Z,10.50
2023-04-15T05:40:25.241Z,9.25
2023-04-15T05:42:51.936Z,10.07
2023-04-15T05:45:18.807Z,9.95
2023-04-15T05:47:45.622Z,10.77
2023-04-15T05:50:12.533Z,11.63
2023-04-15T05:52:39.290Z,9.93
2023-04-15T05:55:06.523Z,10.93
2023-04-15T05:57:33.179Z,12.05
2023-04-15T05:59:59.839Z,9.88
2023-04-15T06:02:27.980Z,11.40
2023-04-15T06:04:54.844Z,10.80
2023-04-15T06:07:21.559Z,10.75
2023-04-15T06:09:48.645Z,10.23
2023-04-15T06:12:15.870Z,9.75
2023-04-15T06:14:43.043Z,9.43
2023-04-15T06:17:09.772Z,9.30
2023-04-15T06:19:36.749Z,9.45
2023-04-15T06:22:03.851Z,9.43
2023-04-15T06:24:31.477Z,9.93
2023-04-15T06:26:58.130Z,9.65
2023-04-15T06:29:24.782Z,9.50
2023-04-15T06:31:51.694Z,9.80
2023-04-15T06:34:18.401Z,9.25
2023-04-15T06:36:45.013Z,10.60
2023-04-15T06:39:11.747Z,8.75
2023-04-15T06:41:38.473Z,10.25
2023-04-15T06:44:05.795Z,10.40
2023-04-15T06:46:32.755Z,10.45
2023-04-15T06:48:59.637Z,9.88
2023-04-15T06:51:27.027Z,10.13
2023-04-15T06:53:54.003Z,10.75
2023-04-15T06:56:20.802Z,8.45
2023-04-15T06:58:47.467Z,8.60
2023-04-15T07:01:14.359Z,9.85
2023-04-15T07:03:41.988Z,9.10
2023-04-15T07:06:09.436Z,9.82
2023-04-15T07:08:36.184Z,10.68
2023-04-15T07:11:02.841Z,9.80
2023-04-15T07:13:32.420Z,10.25
2023-04-15T07:15:59.189Z,9.18
2023-04-15T07:18:26.043Z,10.00
2023-04-15T07:20:52.823Z,9.73
2023-04-15T07:23:19.675Z,10.13
2023-04-15T07:25:47.322Z,10.57
2023-04-15T07:28:14.029Z,10.85
2023-04-15T07:30:40.742Z,10.18
2023-04-15T07:33:07.894Z,9.13
2023-04-15T07:35:34.598Z,9.00
2023-04-15T07:38:01.399Z,8.80
2023-04-15T07:40:28.244Z,9.38
2023-04-15T07:42:57.282Z,9.93
2023-04-15T07:45:24.169Z,9.15
2023-04-15T07:47:51.535Z,9.77
2023-04-15T07:50:19.661Z,9.18
2023-04-15T07:52:46.597Z,9.93
2023-04-15T07:55:13.351Z,9.00
2023-04-15T07:57:40.005Z,8.32
2023-04-15T08:00:07.663Z,9.45
2023-04-15T08:02:41.695Z,7.45
2023-04-15T08:05:09.529Z,8.25
2023-04-15T08:07:39.711Z,9.30
2023-04-15T08:10:07.087Z,9.15
2023-04-15T08:12:33.769Z,8.32
2023-04-15T08:15:01.036Z,8.05
2023-04-15T08:17:28.274Z,8.27
2023-04-15T08:19:55.033Z,7.60
2023-04-15T08:22:22.426Z,6.57
2023-04-15T08:24:49.199Z,7.50
2023-04-15T08:27:15.913Z,7.35
2023-04-15T08:29:42.737Z,7.88
2023-04-15T08:32:09.595Z,7.70
2023-04-15T08:34:36.813Z,7.55
2023-04-15T08:37:03.550Z,8.02
2023-04-15T08:39:30.298Z,7.70
2023-04-15T08:42:07.184Z,7.38
2023-04-15T08:44:35.660Z,7.93
2023-04-15T08:47:03.371Z,7.32
2023-04-15T08:49:31.395Z,7.57
2023-04-15T08:52:04.348Z,7.80
2023-04-15T08:54:31.248Z,7.25
2023-04-15T08:57:01.194Z,7.07
2023-04-15T08:59:30.043Z,7.45
2023-04-15T09:01:58.604Z,6.78
2023-04-15T09:04:28.686Z,6.43
2023-04-15T09:06:55.444Z,6.00
2023-04-15T09:09:22.602Z,5.95
2023-04-15T09:11:50.080Z,6.07
2023-04-15T09:14:24.212Z,6.22
2023-04-15T09:17:10.382Z,6.07
2023-04-15T09:20:10.825Z,5.40
2023-04-15T09:22:43.460Z,6.20
2023-04-15T09:25:32.189Z,5.43
2023-04-15T09:28:03.405Z,5.22
2023-04-15T09:30:30.573Z,5.60
2023-04-15T09:33:00.738Z,4.70
2023-04-15T09:35:28.630Z,5.35
2023-04-15T09:38:09.791Z,5.13
2023-04-15T09:40:42.107Z,5.33
2023-04-15T09:43:12.798Z,5.00
2023-04-15T09:46:03.015Z,4.68
2023-04-15T09:48:38.838Z,4.45
2023-04-15T09:51:06.104Z,4.57
2023-04-15T09:53:35.455Z,4.80
2023-04-15T09:56:03.192Z,4.35
2023-04-15T09:58:33.281Z,5.13
2023-04-15T10:01:02.978Z,4.55
2023-04-15T10:03:31.593Z,4.93
2023-04-15T10:06:02.232Z,4.78
2023-04-15T10:08:31.544Z,4.60
2023-04-15T10:10:58.923Z,5.80
2023-04-15T10:13:29.492Z,4.53
2023-04-15T10:16:00.159Z,4.80
2023-04-15T10:18:28.902Z,5.00
2023-04-15T10:20:55.656Z,6.10
2023-04-15T10:23:24.396Z,4.65
2023-04-15T10:25:56.188Z,5.63
2023-04-15T10:28:22.905Z,5.78
2023-04-15T10:30:50.235Z,6.05
2023-04-15T10:33:20.843Z,5.60
2023-04-15T10:35:48.914Z,5.30
2023-04-15T10:38:38.820Z,5.63
2023-04-15T10:41:24.000Z,5.15
2023-04-15T10:43:55.846Z,4.60
2023-04-15T10:46:34.437Z,4.65
2023-04-15T10:49:26.106Z,4.80
2023-04-15T10:51:58.111Z,4.60
2023-04-15T10:57:04.541Z,4.45
2023-04-15T10:59:37.929Z,4.50
2023-04-15T11:02:06.853Z,4.07
2023-04-15T11:04:58.956Z,4.50
2023-04-15T11:07:39.083Z,4.15
2023-04-15T11:10:17.960Z,3.67
2023-04-15T11:12:45.839Z,4.20
2023-04-15T11:15:47.071Z,3.67
2023-04-15T11:18:16.368Z,3.97
2023-04-15T11:20:47.345Z,4.03
2023-04-15T11:23:58.562Z,3.92
2023-04-15T11:26:39.636Z,3.72
2023-04-15T11:33:16.389Z,2.85
2023-04-15T11:35:56.663Z,2.70
2023-04-15T11:38:23.474Z,3.10
2023-04-15T11:40:52.161Z,2.47
2023-04-15T11:43:21.518Z,2.63
2023-04-15T11:45:54.310Z,3.33
2023-04-15T11:48:23.411Z,2.38
2023-04-15T11:51:05.141Z,2.70
2023-04-15T11:53:50.603Z,2.80
2023-04-15T11:56:27.563Z,2.50
2023-04-15T11:58:59.719Z,2.95
2023-04-15T12:01:39.350Z,2.85
2023-04-15T12:04:20.118Z,3.08
2023-04-15T12:06:49.337Z,3.30
2023-04-15T12:09:18.282Z,3.03
2023-04-15T12:11:47.894Z,3.10
2023-04-15T12:14:24.292Z,2.70
2023-04-15T12:16:54.160Z,2.88
2023-04-15T12:19:48.404Z,5.28
2023-04-15T12:22:16.813Z,3.47
2023-04-15T12:24:47.891Z,3.30
2023-04-15T12:27:16.497Z,6.80
2023-04-15T12:29:43.884Z,4.10
2023-04-15T12:32:14.326Z,8.45
2023-04-15T12:34:43.520Z,6.50
2023-04-15T12:37:13.122Z,7.32
2023-04-15T12:39:41.857Z,15.68
2023-04-15T12:42:09.647Z,6.60
2023-04-15T12:44:40.038Z,5.38
2023-04-15T12:47:09.970Z,5.97
2023-04-15T12:49:37.565Z,5.88
2023-04-15T12:52:04.959Z,11.32
2023-04-15T12:54:32.455Z,6.47
2023-04-15T12:57:03.357Z,6.65
2023-04-15T12:59:31.296Z,6.20
2023-04-15T13:01:58.687Z,6.97
2023-04-15T13:04:30.752Z,6.80
2023-04-15T13:06:57.917Z,6.75
2023-04-15T13:09:25.013Z,7.43
2023-04-15T13:11:52.692Z,8.02
2023-04-15T13:14:19.587Z,7.00
2023-04-15T13:16:46.359Z,7.15
2023-04-15T13:19:14.782Z,7.10
2023-04-15T13:21:41.464Z,13.90
2023-04-15T13:24:08.393Z,7.55
2023-04-15T13:26:35.984Z,7.75
2023-04-15T13:29:14.161Z,8.48
2023-04-15T13:31:40.971Z,8.95
2023-04-15T13:34:08.022Z,7.90
2023-04-15T13:36:40.657Z,9.00
2023-04-15T13:39:07.360Z,9.45
2023-04-15T13:41:34.010Z,10.18
2023-04-15T13:44:02.951Z,9.52
2023-04-15T13:46:29.983Z,9.25
2023-04-15T13:48:56.693Z,9.65
2023-04-15T13:51:23.391Z,10.43
2023-04-15T13:53:50.077Z,10.50
2023-04-15T13:56:16.764Z,9.73
2023-04-15T13:58:43.647Z,9.93
2023-04-15T14:01:10.358Z,11.25
2023-04-15T14:03:37.387Z,11.05
2023-04-15T14:06:05.596Z,11.60
2023-04-15T14:09:14.160Z,11.27
2023-04-15T14:13:39.108Z,11.60
2023-04-15T14:15:11.685Z,13.45
2023-04-15T14:17:38.787Z,11.77
2023-04-15T14:20:07.905Z,13.45
2023-04-15T14:22:34.543Z,14.93
2023-04-15T14:25:02.238Z,13.10
2023-04-15T14:27:28.956Z,13.55
2023-04-15T14:29:55.706Z,13.43
2023-04-15T14:32:22.431Z,14.32
2023-04-15T14:34:49.128Z,15.77
2023-04-15T14:37:15.978Z,14.40
2023-04-15T14:39:43.216Z,15.00
2023-04-15T14:42:10.841Z,13.88
2023-04-15T14:44:37.642Z,14.18
2023-04-15T14:47:26.968Z,14.77
2023-04-15T14:49:58.349Z,14.50
2023-04-15T14:52:25.040Z,14.25
2023-04-15T14:54:51.791Z,15.98
2023-04-15T14:57:42.692Z,15.20
2023-04-15T15:00:15.279Z,15.45
2023-04-15T15:02:43.533Z,15.13
2023-04-15T15:05:12.016Z,17.08
2023-04-15T15:07:40.738Z,17.55
2023-04-15T15:10:08.043Z,16.98
2023-04-15T15:12:37.935Z,17.05
2023-04-15T15:15:12.336Z,19.55
2023-04-15T15:17:42.851Z,19.20
2023-04-15T15:20:10.840Z,17.27
2023-04-15T15:22:37.533Z,17.38
2023-04-15T15:25:04.706Z,17.98
2023-04-15T15:27:32.005Z,19.70
2023-04-15T15:29:58.946Z,18.15
2023-04-15T15:32:25.838Z,18.73
2023-04-15T15:34:53.284Z,19.08
2023-04-15T15:37:19.936Z,21.23
2023-04-15T15:39:46.673Z,18.55
2023-04-15T15:42:13.383Z,17.75
2023-04-15T15:44:40.066Z,17.67
2023-04-15T15:47:06.811Z,18.30
2023-04-15T15:49:33.530Z,18.02
2023-04-15T15:52:00.848Z,20.05
2023-04-15T15:54:27.996Z,18.70
2023-04-15T15:56:54.815Z,18.50
2023-04-15T15:59:25.370Z,18.80
2023-04-15T16:01:52.387Z,21.08
2023-04-15T16:04:19.465Z,20.25
2023-04-15T16:06:46.739Z,20.00
2023-04-15T16:09:13.897Z,21.48
2023-04-15T16:11:41.277Z,17.65
2023-04-15T16:14:07.960Z,17.55
2023-04-15T16:16:34.926Z,19.63
2023-04-15T16:19:02.887Z,19.35
2023-04-15T16:21:30.524Z,18.15
2023-04-15T16:23:57.403Z,18.63
2023-04-15T16:26:24.189Z,20.17
2023-04-15T16:28:50.866Z,19.58
2023-04-15T16:31:17.559Z,19.30
2023-04-15T16:33:44.243Z,18.25
2023-04-15T16:36:10.877Z,18.70
2023-04-15T16:38:37.558Z,18.05
2023-04-15T16:41:07.616Z,17.10
2023-04-15T16:43:34.289Z,18.60
2023-04-15T16:46:02.180Z,17.27
2023-04-15T16:48:29.361Z,17.35
2023-04-15T16:50:57.180Z,17.17
2023-04-15T16:53:23.877Z,17.70
2023-04-15T16:55:50.804Z,18.05
2023-04-15T16:58:17.704Z,16.92
2023-04-15T17:00:44.553Z,17.65
2023-04-15T17:03:11.548Z,17.92
2023-04-15T17:05:38.518Z,17.42
2023-04-15T17:08:05.659Z,16.27
2023-04-15T17:10:32.346Z,17.00
2023-04-15T17:12:59.549Z,17.98
2023-04-15T17:15:27.092Z,18.35
2023-04-15T17:17:54.263Z,17.25
2023-04-15T17:20:21.071Z,17.73
2023-04-15T17:22:48.756Z,18.05
2023-04-15T17:25:15.899Z,17.05
2023-04-15T17:27:42.643Z,17.85
2023-04-15T17:30:09.766Z,16.80
2023-04-15T17:32:37.132Z,17.25
2023-04-15T17:35:06.334Z,17.17
2023-04-15T17:37:34.242Z,18.17
2023-04-15T17:40:02.346Z,17.10
2023-04-15T17:42:29.236Z,16.38
2023-04-15T17:44:55.998Z,18.98
2023-04-15T17:47:22.920Z,17.73
2023-04-15T17:49:49.571Z,17.65
2023-04-15T17:52:16.202Z,19.25
2023-04-15T17:54:43.341Z,18.45
2023-04-15T17:57:10.203Z,19.55
2023-04-15T17:59:37.113Z,21.27
2023-04-15T18:02:04.181Z,20.15
2023-04-15T18:04:31.106Z,18.90
2023-04-15T18:06:58.107Z,20.38
2023-04-15T18:09:24.957Z,19.90
2023-04-15T18:11:51.609Z,21.25
2023-04-15T18:14:33.006Z,20.88
2023-04-15T18:17:02.330Z,21.65
2023-04-15T18:19:30.575Z,23.20
2023-04-15T18:21:59.807Z,22.52
2023-04-15T18:24:27.986Z,22.23
2023-04-15T18:26:54.737Z,22.38
2023-04-15T18:29:21.444Z,21.13
2023-04-15T18:31:48.425Z,21.55
2023-04-15T18:34:15.220Z,23.85
2023-04-15T18:36:41.996Z,24.67
2023-04-15T18:39:08.751Z,22.38
2023-04-15T18:41:35.505Z,22.90
2023-04-15T18:44:02.731Z,23.35
2023-04-15T18:46:29.442Z,22.70
2023-04-15T18:48:56.156Z,23.20
2023-04-15T18:51:22.912Z,21.85
2023-04-15T18:53:49.867Z,22.95
2023-04-15T18:56:19.567Z,23.38
2023-04-15T18:59:25.336Z,23.50
2023-04-15T19:01:35.939Z,22.55
2023-04-15T19:04:05.015Z,22.45
2023-04-15T19:06:32.101Z,21.83
2023-04-15T19:09:01.422Z,24.48
2023-04-15T19:11:31.760Z,24.40
2023-04-15T19:13:58.499Z,21.70
2023-04-15T19:16:30.846Z,24.20
2023-04-15T19:19:06.607Z,22.42
2023-04-15T19:21:41.236Z,23.80
2023-04-15T19:24:07.981Z,25.27
2023-04-15T19:26:36.624Z,23.48
2023-04-15T19:29:03.620Z,24.70
2023-04-15T19:31:30.635Z,24.42
2023-04-15T19:34:01.314Z,24.13
2023-04-15T19:36:35.996Z,25.35
2023-04-15T19:39:05.331Z,24.38
2023-04-15T19:41:32.454Z,26.00
2023-04-15T19:43:59.875Z,26.27
2023-04-15T19:46:27.488Z,24.92
2023-04-15T19:48:55.501Z,27.40
2023-04-15T19:51:22.234Z,25.17
2023-04-15T19:53:53.894Z,26.05
2023-04-15T19:56:20.912Z,26.92
2023-04-15T19:58:52.632Z,27.88
2023-04-15T20:01:20.360Z,27.98
2023-04-15T20:03:48.163Z,28.00
2023-04-15T20:06:15.646Z,26.05
2023-04-15T20:08:42.478Z,26.15
2023-04-15T20:11:10.124Z,26.15
2023-04-15T20:13:36.992Z,27.45
2023-04-15T20:16:05.780Z,27.13
2023-04-15T20:18:32.600Z,26.70
2023-04-15T20:20:59.260Z,28.50
2023-04-15T20:23:26.174Z,26.33
2023-04-15T20:25:52.947Z,27.55
2023-04-15T20:28:20.012Z,28.55
2023-04-15T20:30:47.214Z,26.73
2023-04-15T20:33:14.345Z,29.92
2023-04-15T20:35:41.158Z,30.73
2023-04-15T20:38:07.813Z,30.13
2023-04-15T20:40:34.509Z,27.25
2023-04-15T20:43:02.115Z,28.33
2023-04-15T20:45:28.838Z,28.42
2023-04-15T20:47:56.042Z,28.13
2023-04-15T20:50:22.900Z,27.90
2023-04-15T20:52:49.624Z,28.20
2023-04-15T20:55:16.357Z,29.20
2023-04-15T20:57:43.302Z,26.27
2023-04-15T21:00:11.024Z,29.10
2023-04-15T21:02:38.364Z,28.75
2023-04-15T21:05:05.789Z,29.80
2023-04-15T21:07:32.807Z,30.00
2023-04-15T21:09:59.614Z,26.42
2023-04-15T21:12:26.243Z,25.33
2023-04-15T21:14:52.917Z,26.83
2023-04-15T21:17:19.625Z,26.48
2023-04-15T21:19:46.442Z,27.00
2023-04-15T21:22:13.114Z,26.15
2023-04-15T21:24:39.794Z,27.13
2023-04-15T21:27:06.843Z,28.17
2023-04-15T21:29:33.566Z,25.65
2023-04-15T21:32:00.487Z,29.90
2023-04-15T21:34:27.822Z,27.80
2023-04-15T21:36:54.543Z,27.85
2023-04-15T21:39:21.485Z,29.13
2023-04-15T21:41:48.324Z,29.83
2023-04-15T21:44:15.192Z,30.90
2023-04-15T21:46:46.092Z,27.10
2023-04-15T21:49:13.421Z,29.30
2023-04-15T21:51:40.211Z,29.35
2023-04-15T21:54:06.912Z,27.65
2023-04-15T21:56:33.642Z,27.65
2023-04-15T21:59:00.388Z,29.48
2023-04-15T22:01:27.822Z,28.90
2023-04-15T22:03:55.024Z,26.42
2023-04-15T22:06:22.028Z,25.95
2023-04-15T22:08:57.528Z,25.42
2023-04-15T22:11:28.693Z,25.27
2023-04-15T22:13:59.143Z,27.63
2023-04-15T22:16:26.749Z,27.65
2023-04-15T22:18:54.445Z,27.25
2023-04-15T22:21:21.156Z,26.63
2023-04-15T22:23:49.255Z,27.08
2023-04-15T22:26:15.956Z,26.60
2023-04-15T22:28:42.608Z,27.30
2023-04-15T22:31:10.320Z,27.63
2023-04-15T22:33:37.091Z,27.60
2023-04-15T22:36:04.072Z,30.48
2023-04-15T22:38:30.923Z,26.10
2023-04-15T22:40:58.173Z,27.40
2023-04-15T22:43:25.818Z,28.65
2023-04-15T22:45:54.708Z,29.27
2023-04-15T22:48:21.543Z,27.75
2023-04-15T22:50:48.588Z,28.88
2023-04-15T22:53:20.051Z,26.02
2023-04-15T22:55:47.736Z,25.75
2023-04-15T22:58:15.561Z,24.65
2023-04-15T23:00:42.314Z,25.55
2023-04-15T23:03:09.347Z,26.05
2023-04-15T23:05:36.688Z,25.77
2023-04-15T23:08:03.669Z,25.92
2023-04-15T23:10:30.360Z,24.23
2023-04-15T23:12:57.013Z,26.40
2023-04-15T23:15:23.935Z,25.42
2023-04-15T23:17:50.765Z,25.23
2023-04-15T23:20:17.506Z,24.98
2023-04-15T23:22:44.192Z,23.17
2023-04-15T23:25:11.022Z,23.63
2023-04-15T23:27:37.674Z,25.10
2023-04-15T23:30:04.903Z,25.13
2023-04-15T23:32:31.741Z,24.90
2023-04-15T23:34:58.465Z,23.63
2023-04-15T23:37:25.147Z,24.60
2023-04-15T23:39:52.185Z,25.10
2023-04-15T23:42:18.945Z,23.85
2023-04-15T23:44:45.985Z,25.83
2023-04-15T23:47:15.683Z,23.65
2023-04-15T23:49:42.327Z,23.05
2023-04-15T23:52:08.990Z,24.20
2023-04-15T23:54:36.052Z,23.33
2023-04-15T23:57:03.535Z,24.17
2023-04-15T23:59:30.226Z,23.05
